In Rescue
 
Open Full Screen Window  High Contrast Mode
Wind Gusting 19 knots
15
May 28, 2020 3:36 PM CDT
Weather Information
Wind Direction
  280 °
Wind Speed
  15 kt (17 mph)
Wind Gust
  19 kt (22 mph)
Altimeter
29.86 in
Visibility
10 SM
Temperature
23° C
73° F
Dewpoint
-04° C
25° F
Humidity
16%
1hr Rain Fall
00.00 in.
24hr Rain Fall
00.00 in.
Sky Condition
Clear
VFR

METAR KCOQ 282036Z AUTO 28015G19KT 10SM CLR 23/M04 A2986 RMK AO2 TSNO

FAA Disclaimer: The data displayed is for advisory purposes only and is not to be used for flight planning or operations.